Time;durP1;ratioP1;P1;durP2;ratioP2;P2;SDS_P1;SDS_P2;PMS_P1;PMS_P2;Temp;Humidity;BMP_temperature;BMP_pressure;BME280_temperature;BME280_humidity;BME280_pressure;Samples;Min_cycle;Max_cycle;Signal;HPM_P1;HPM_P2
2023/07/20 00:00:53;;;;;;;2.42;1.35;;;16.30;99.90;;;;;;5088289;28;20044;-68
2023/07/20 00:03:23;;;;;;;4.43;1.85;;;16.30;99.90;;;;;;5076901;28;20048;-68
2023/07/20 00:05:49;;;;;;;3.80;1.70;;;16.30;99.90;;;;;;5087737;28;20064;-68
2023/07/20 00:08:16;;;;;;;2.80;1.50;;;16.20;99.90;;;;;;5088069;28;20039;-69
2023/07/20 00:10:42;;;;;;;2.90;1.52;;;16.20;99.90;;;;;;5087259;28;20040;-68
2023/07/20 00:13:08;;;;;;;2.95;1.40;;;16.20;99.90;;;;;;5089159;28;20052;-68
2023/07/20 00:15:34;;;;;;;5.65;1.60;;;16.20;99.90;;;;;;5087144;28;20040;-68
2023/07/20 00:18:00;;;;;;;3.28;1.60;;;16.20;99.90;;;;;;5088448;28;20044;-69
2023/07/20 00:20:26;;;;;;;3.45;1.40;;;16.20;99.90;;;;;;5087219;28;20453;-69
2023/07/20 00:22:51;;;;;;;3.30;1.73;;;16.20;99.90;;;;;;5089179;28;20520;-69
2023/07/20 00:25:18;;;;;;;5.22;1.75;;;16.20;99.90;;;;;;5087934;28;20487;-69
2023/07/20 00:27:44;;;;;;;5.43;2.65;;;16.20;99.90;;;;;;5088874;28;20505;-69
2023/07/20 00:30:10;;;;;;;4.45;1.90;;;16.10;99.90;;;;;;5070226;28;20055;-69
2023/07/20 00:32:36;;;;;;;4.13;1.80;;;16.10;99.90;;;;;;5087446;28;20040;-68
2023/07/20 00:35:02;;;;;;;4.60;1.83;;;16.10;99.90;;;;;;5088211;28;20098;-69
2023/07/20 00:37:28;;;;;;;3.90;2.00;;;16.10;99.90;;;;;;5082871;28;20270;-68
2023/07/20 00:39:54;;;;;;;4.30;1.95;;;16.00;99.90;;;;;;5087476;28;20036;-72
2023/07/20 00:42:20;;;;;;;4.68;1.92;;;16.00;99.90;;;;;;5084394;28;20047;-71
2023/07/20 00:44:46;;;;;;;4.25;2.03;;;16.00;99.90;;;;;;5087779;28;20043;-71
2023/07/20 00:47:12;;;;;;;4.38;2.03;;;16.00;99.90;;;;;;5088495;28;20132;-72
2023/07/20 00:49:41;;;;;;;5.18;2.00;;;15.90;99.90;;;;;;5088121;28;20050;-71
2023/07/20 00:52:10;;;;;;;5.15;2.08;;;15.90;99.90;;;;;;5087583;28;20040;-72
2023/07/20 00:54:39;;;;;;;4.43;1.85;;;15.90;99.90;;;;;;5087179;28;20047;-72
2023/07/20 00:57:07;;;;;;;4.88;2.03;;;15.80;99.90;;;;;;5088363;28;20044;-71
2023/07/20 00:59:35;;;;;;;4.80;2.38;;;15.80;99.90;;;;;;5088660;28;20116;-71
2023/07/20 01:02:02;;;;;;;5.32;2.10;;;15.80;99.90;;;;;;5087547;28;20108;-72
2023/07/20 01:04:28;;;;;;;3.95;1.77;;;15.70;99.90;;;;;;5088195;28;20036;-72
2023/07/20 01:07:13;;;;;;;4.65;1.98;;;15.70;99.90;;;;;;5086333;28;20032;-69
2023/07/20 01:09:52;;;;;;;3.63;1.80;;;15.60;99.90;;;;;;5087565;28;20047;-71
2023/07/20 01:12:35;;;;;;;3.55;1.95;;;15.60;99.90;;;;;;5070415;28;20058;-71
2023/07/20 01:15:01;;;;;;;3.47;1.98;;;15.50;99.90;;;;;;5087775;28;20044;-71
2023/07/20 01:17:27;;;;;;;5.55;2.17;;;15.50;99.90;;;;;;5087089;28;20072;-71
2023/07/20 01:19:53;;;;;;;3.67;1.92;;;15.50;99.90;;;;;;5085089;28;20044;-71
2023/07/20 01:22:28;;;;;;;6.22;2.10;;;15.40;99.90;;;;;;5086011;28;20067;-71
2023/07/20 01:25:23;;;;;;;4.32;2.10;;;15.40;99.90;;;;;;5086844;28;20036;-71
2023/07/20 01:28:16;;;;;;;4.28;1.98;;;15.30;99.90;;;;;;5086471;28;20043;-71
2023/07/20 01:30:54;;;;;;;3.88;2.00;;;15.30;99.90;;;;;;5084262;28;20047;-71
2023/07/20 01:33:21;;;;;;;3.63;1.83;;;15.30;99.90;;;;;;5075677;28;20047;-71
2023/07/20 01:35:53;;;;;;;4.68;1.90;;;15.20;99.90;;;;;;5086395;28;20048;-73
2023/07/20 01:38:20;;;;;;;4.68;2.47;;;15.20;99.90;;;;;;5087081;28;20060;-71
2023/07/20 01:40:46;;;;;;;3.15;1.98;;;15.10;99.90;;;;;;5087412;28;20054;-72
2023/07/20 01:43:12;;;;;;;6.03;2.25;;;15.10;99.90;;;;;;5087156;28;20072;-72
2023/07/20 01:45:39;;;;;;;3.53;1.92;;;15.00;99.90;;;;;;5086965;28;20048;-72
2023/07/20 01:48:05;;;;;;;5.85;2.10;;;15.00;99.90;;;;;;5086774;28;20504;-70
2023/07/20 01:50:31;;;;;;;5.35;2.00;;;14.90;99.90;;;;;;5086646;28;20059;-71
2023/07/20 01:52:56;;;;;;;4.70;2.35;;;14.90;99.90;;;;;;5087443;28;20043;-71
2023/07/20 01:55:22;;;;;;;3.45;1.85;;;14.80;99.90;;;;;;5086134;28;20500;-71
2023/07/20 01:57:48;;;;;;;4.32;1.85;;;14.80;99.90;;;;;;5087238;28;20090;-72
2023/07/20 02:00:14;;;;;;;4.15;1.83;;;14.70;99.90;;;;;;5086256;28;20378;-72
2023/07/20 02:02:41;;;;;;;4.43;2.05;;;14.70;99.90;;;;;;5082835;28;20048;-72
2023/07/20 02:05:07;;;;;;;6.28;2.10;;;14.70;99.90;;;;;;5086545;28;20071;-71
2023/07/20 02:07:33;;;;;;;3.65;2.08;;;14.70;99.90;;;;;;5085653;28;20059;-72
2023/07/20 02:09:59;;;;;;;5.10;1.77;;;14.60;99.90;;;;;;5095947;28;20507;-71
2023/07/20 02:12:24;;;;;;;5.85;2.10;;;14.60;99.90;;;;;;5086845;28;20125;-71
2023/07/20 02:14:51;;;;;;;3.30;1.80;;;14.60;99.90;;;;;;5086724;28;20126;-70
2023/07/20 02:17:17;;;;;;;5.85;2.20;;;14.50;99.90;;;;;;5068396;28;20048;-68
2023/07/20 02:19:42;;;;;;;5.10;1.83;;;14.50;99.90;;;;;;5081993;28;20047;-68
2023/07/20 02:22:08;;;;;;;4.15;2.03;;;14.40;99.90;;;;;;5084564;28;20127;-68
2023/07/20 02:24:34;;;;;;;4.97;2.03;;;14.40;99.90;;;;;;5086466;28;20113;-68
2023/07/20 02:27:00;;;;;;;3.85;1.83;;;14.30;99.90;;;;;;5086419;28;20032;-68
2023/07/20 02:29:26;;;;;;;3.75;1.90;;;14.30;99.90;;;;;;5085642;28;20040;-68
2023/07/20 02:31:51;;;;;;;3.38;1.80;;;14.20;99.90;;;;;;5085150;28;20550;-69
2023/07/20 02:34:17;;;;;;;3.20;1.80;;;14.20;99.90;;;;;;5085762;28;20047;-68
2023/07/20 02:36:43;;;;;;;4.20;1.95;;;14.20;99.90;;;;;;5086415;28;20079;-69
2023/07/20 02:39:09;;;;;;;5.35;2.13;;;14.20;99.90;;;;;;5087060;28;20048;-72
2023/07/20 02:41:35;;;;;;;5.22;2.03;;;14.10;99.90;;;;;;5085198;28;20040;-71
2023/07/20 02:44:01;;;;;;;5.57;1.85;;;14.10;99.90;;;;;;5085216;28;20067;-71
2023/07/20 02:46:29;;;;;;;4.90;2.10;;;14.10;99.90;;;;;;5086599;28;20040;-71
2023/07/20 02:48:55;;;;;;;3.28;1.73;;;14.10;99.90;;;;;;5086752;28;20427;-71
2023/07/20 02:51:21;;;;;;;4.55;1.73;;;14.10;99.90;;;;;;5086331;28;20047;-71
2023/07/20 02:53:47;;;;;;;4.63;1.92;;;14.00;99.90;;;;;;5086047;28;20043;-71
2023/07/20 02:56:13;;;;;;;3.42;1.70;;;14.00;99.90;;;;;;5085413;28;20143;-71
2023/07/20 02:58:43;;;;;;;4.68;1.88;;;14.00;99.90;;;;;;5084278;28;20040;-71
2023/07/20 03:01:10;;;;;;;4.10;2.13;;;14.00;99.90;;;;;;5084479;28;20046;-71
2023/07/20 03:03:38;;;;;;;5.38;2.30;;;14.00;99.90;;;;;;5086049;28;20131;-71
2023/07/20 03:06:05;;;;;;;5.13;2.17;;;13.90;99.90;;;;;;5083718;28;20051;-71
2023/07/20 03:08:31;;;;;;;4.85;1.85;;;13.90;99.90;;;;;;5085902;28;20120;-72
2023/07/20 03:10:56;;;;;;;4.28;2.05;;;13.90;99.90;;;;;;5086676;28;20115;-71
2023/07/20 03:13:24;;;;;;;3.47;1.90;;;13.80;99.90;;;;;;5086114;28;20111;-71
2023/07/20 03:15:49;;;;;;;4.80;2.40;;;13.80;99.90;;;;;;5086014;28;20101;-71
2023/07/20 03:18:15;;;;;;;7.15;2.15;;;13.80;99.90;;;;;;5085980;28;20047;-71
2023/07/20 03:20:41;;;;;;;6.15;2.20;;;13.70;99.90;;;;;;5086423;28;20867;-72
2023/07/20 03:23:06;;;;;;;3.70;1.85;;;13.70;99.90;;;;;;5079466;28;20045;-72
2023/07/20 03:25:33;;;;;;;4.85;2.17;;;13.60;99.90;;;;;;5080836;28;20040;-72
2023/07/20 03:27:59;;;;;;;5.88;2.50;;;13.60;99.90;;;;;;5083458;28;20047;-71
2023/07/20 03:30:25;;;;;;;5.25;2.10;;;13.60;99.90;;;;;;5085773;28;20450;-71
2023/07/20 03:32:51;;;;;;;5.80;1.77;;;13.60;99.90;;;;;;5086221;28;20040;-73
2023/07/20 03:35:17;;;;;;;4.60;2.13;;;13.50;99.90;;;;;;5085202;28;20113;-72
2023/07/20 03:37:43;;;;;;;3.92;1.95;;;13.50;99.90;;;;;;5086434;28;20438;-72
2023/07/20 03:40:09;;;;;;;6.80;2.15;;;13.40;99.90;;;;;;5086533;28;20162;-70
2023/07/20 03:42:36;;;;;;;5.70;2.20;;;13.40;99.90;;;;;;5085996;28;20040;-70
2023/07/20 03:45:02;;;;;;;6.00;2.20;;;13.40;99.90;;;;;;5087484;28;20076;-70
2023/07/20 03:47:28;;;;;;;3.97;2.00;;;13.40;99.90;;;;;;5089164;28;20070;-70
2023/07/20 03:49:54;;;;;;;5.20;2.00;;;13.30;99.90;;;;;;5088517;28;20028;-71
2023/07/20 03:52:20;;;;;;;4.25;1.95;;;13.30;99.90;;;;;;5086462;28;20052;-72
2023/07/20 03:54:45;;;;;;;3.75;1.98;;;13.30;99.90;;;;;;5074728;28;20143;-71
2023/07/20 03:57:11;;;;;;;3.95;1.75;;;13.30;99.90;;;;;;5085048;28;20040;-72
2023/07/20 03:59:39;;;;;;;4.43;1.90;;;13.20;99.90;;;;;;5065276;28;20067;-72
2023/07/20 04:02:05;;;;;;;4.32;2.10;;;13.20;99.90;;;;;;5074570;28;20044;-72
2023/07/20 04:04:31;;;;;;;3.85;1.70;;;13.20;99.90;;;;;;5086966;28;20044;-71
2023/07/20 04:06:57;;;;;;;5.05;2.17;;;13.10;99.90;;;;;;5086621;28;20040;-72
2023/07/20 04:09:22;;;;;;;3.55;1.75;;;13.10;99.90;;;;;;5080491;28;20036;-72
2023/07/20 04:11:48;;;;;;;5.05;2.05;;;13.10;99.90;;;;;;5087484;28;20040;-72
2023/07/20 04:14:14;;;;;;;4.30;2.00;;;13.10;99.90;;;;;;5088496;28;20044;-72
2023/07/20 04:16:39;;;;;;;4.55;1.85;;;13.10;99.90;;;;;;5089272;28;20129;-72
2023/07/20 04:19:05;;;;;;;4.55;2.08;;;13.10;99.90;;;;;;5088426;28;20044;-72
2023/07/20 04:21:31;;;;;;;4.45;1.98;;;13.10;99.90;;;;;;5088584;28;20122;-73
2023/07/20 04:23:56;;;;;;;3.80;1.90;;;13.10;99.90;;;;;;5085025;28;20525;-72
2023/07/20 04:26:23;;;;;;;4.63;2.25;;;13.00;99.90;;;;;;5089408;28;20032;-71
2023/07/20 04:28:50;;;;;;;6.32;1.85;;;13.10;99.90;;;;;;5087127;28;20191;-68
2023/07/20 04:31:16;;;;;;;4.43;1.70;;;13.00;99.90;;;;;;5088939;28;20039;-69
2023/07/20 04:33:42;;;;;;;3.90;1.70;;;13.00;99.90;;;;;;5088668;28;20051;-69
2023/07/20 04:36:09;;;;;;;3.33;1.58;;;13.00;99.90;;;;;;5087370;28;20044;-68
2023/07/20 04:38:36;;;;;;;4.32;1.90;;;13.00;99.90;;;;;;5088649;28;20483;-68
2023/07/20 04:41:01;;;;;;;4.05;1.85;;;13.00;99.90;;;;;;5083342;28;20136;-68
2023/07/20 04:43:29;;;;;;;4.97;1.85;;;13.00;99.90;;;;;;5088921;28;20048;-69
2023/07/20 04:45:55;;;;;;;4.03;1.90;;;13.00;99.90;;;;;;5084903;28;20047;-68
2023/07/20 04:48:20;;;;;;;7.63;2.42;;;13.00;99.90;;;;;;5088345;28;20036;-68
2023/07/20 04:50:46;;;;;;;7.05;1.77;;;13.10;99.90;;;;;;5086409;28;20063;-68
2023/07/20 04:53:12;;;;;;;3.80;1.70;;;13.30;99.90;;;;;;5085291;28;20058;-69
2023/07/20 04:55:39;;;;;;;5.20;1.90;;;13.40;99.90;;;;;;5087836;28;20044;-69
2023/07/20 04:58:05;;;;;;;3.40;1.60;;;13.50;99.90;;;;;;5088351;28;20048;-68
2023/07/20 05:00:32;;;;;;;6.75;2.58;;;13.40;99.90;;;;;;5087698;28;20186;-68
2023/07/20 05:02:58;;;;;;;3.75;1.90;;;13.40;99.90;;;;;;5088027;28;20044;-69
2023/07/20 05:05:24;;;;;;;3.95;1.80;;;13.40;99.90;;;;;;5087933;28;20054;-69
2023/07/20 05:07:50;;;;;;;3.97;1.60;;;13.40;99.90;;;;;;5088560;28;20036;-69
2023/07/20 05:10:17;;;;;;;5.00;1.90;;;13.40;99.90;;;;;;5088045;28;20054;-69
2023/07/20 05:12:43;;;;;;;4.28;2.00;;;13.40;99.90;;;;;;5086001;28;20135;-69
2023/07/20 05:15:09;;;;;;;5.38;1.90;;;13.50;99.90;;;;;;5087788;28;20572;-68
2023/07/20 05:17:35;;;;;;;5.95;1.70;;;13.80;99.90;;;;;;5087362;28;20131;-72
2023/07/20 05:20:00;;;;;;;4.07;1.58;;;14.20;99.90;;;;;;5082285;28;20134;-72
2023/07/20 05:22:26;;;;;;;3.90;1.75;;;14.60;99.90;;;;;;5084743;28;20071;-72
2023/07/20 05:24:52;;;;;;;5.20;1.50;;;15.00;99.90;;;;;;5075628;28;20195;-72
2023/07/20 05:27:18;;;;;;;3.47;1.55;;;15.30;99.90;;;;;;5082333;28;20055;-72
2023/07/20 05:29:45;;;;;;;4.07;1.63;;;15.40;99.90;;;;;;5098866;28;20043;-72
2023/07/20 05:32:11;;;;;;;3.92;1.52;;;15.30;99.90;;;;;;5095427;27;20048;-73
2023/07/20 05:34:37;;;;;;;5.05;1.52;;;15.20;99.90;;;;;;5075610;28;20040;-73
2023/07/20 05:37:03;;;;;;;6.25;1.83;;;15.10;99.90;;;;;;5088829;28;20513;-73
2023/07/20 05:39:29;;;;;;;3.25;1.70;;;15.00;99.90;;;;;;5090469;28;20040;-71
2023/07/20 05:41:54;;;;;;;4.45;1.50;;;14.90;99.90;;;;;;5081209;28;20507;-72
2023/07/20 05:44:20;;;;;;;3.70;1.65;;;14.80;99.90;;;;;;5086274;28;20822;-72
2023/07/20 05:46:46;;;;;;;5.25;1.80;;;14.70;99.90;;;;;;5090854;28;20593;-72
2023/07/20 05:49:12;;;;;;;3.08;1.50;;;14.70;99.90;;;;;;5093946;28;20048;-74
2023/07/20 05:51:37;;;;;;;5.05;1.50;;;14.70;99.90;;;;;;5096939;28;20492;-72
2023/07/20 05:54:03;;;;;;;4.45;1.40;;;14.60;99.90;;;;;;5094156;28;20047;-72
2023/07/20 05:56:29;;;;;;;6.85;1.52;;;14.60;99.90;;;;;;5077030;28;20044;-72
2023/07/20 05:58:54;;;;;;;3.33;1.60;;;14.60;99.90;;;;;;5095065;28;20129;-72
2023/07/20 06:01:20;;;;;;;3.67;1.52;;;14.60;99.90;;;;;;5094874;28;20044;-72
2023/07/20 06:03:46;;;;;;;4.25;1.40;;;14.60;99.90;;;;;;5089274;28;20051;-72
2023/07/20 06:06:12;;;;;;;3.25;1.48;;;14.60;99.90;;;;;;5087714;28;20032;-73
2023/07/20 06:08:38;;;;;;;3.53;1.40;;;14.60;99.90;;;;;;5083957;28;20525;-73
2023/07/20 06:11:04;;;;;;;4.47;1.88;;;14.60;99.90;;;;;;5086290;28;20036;-72
2023/07/20 06:13:31;;;;;;;4.13;1.50;;;14.60;99.90;;;;;;5085617;28;20055;-71
2023/07/20 06:15:56;;;;;;;4.30;1.52;;;14.60;99.90;;;;;;5079206;28;20048;-72
2023/07/20 06:18:25;;;;;;;3.50;1.73;;;14.70;99.90;;;;;;5086530;28;20404;-71
2023/07/20 06:20:51;;;;;;;5.65;1.63;;;14.70;99.90;;;;;;5084375;28;20591;-72
2023/07/20 06:23:19;;;;;;;3.78;1.60;;;14.70;99.90;;;;;;5085679;28;20040;-74
2023/07/20 06:25:45;;;;;;;3.40;1.50;;;14.70;99.90;;;;;;5081510;28;20111;-73
2023/07/20 06:28:14;;;;;;;6.72;1.67;;;14.90;99.90;;;;;;5080225;28;20044;-72
2023/07/20 06:30:40;;;;;;;4.15;1.40;;;15.20;99.90;;;;;;5085529;28;20044;-69
2023/07/20 06:33:07;;;;;;;4.53;1.40;;;15.30;99.90;;;;;;5085050;28;20193;-70
2023/07/20 06:35:33;;;;;;;6.47;1.42;;;15.40;99.90;;;;;;5080440;28;20045;-70
2023/07/20 06:38:00;;;;;;;5.93;1.42;;;15.40;99.90;;;;;;5076172;28;20146;-70
2023/07/20 06:40:26;;;;;;;5.38;1.52;;;15.50;99.90;;;;;;5084809;28;20047;-69
2023/07/20 06:42:52;;;;;;;3.70;1.30;;;15.60;99.90;;;;;;5076298;28;20409;-70
2023/07/20 06:45:18;;;;;;;5.97;1.10;;;15.80;99.90;;;;;;5077971;28;20040;-70
2023/07/20 06:47:43;;;;;;;6.30;1.40;;;15.90;99.90;;;;;;5084605;28;20067;-70
2023/07/20 06:50:10;;;;;;;4.10;1.20;;;15.90;99.90;;;;;;5087620;28;20043;-69
2023/07/20 06:52:36;;;;;;;6.05;1.80;;;15.90;99.90;;;;;;5081773;28;20409;-69
2023/07/20 06:55:03;;;;;;;5.03;1.30;;;15.80;99.90;;;;;;5078705;28;20048;-70
2023/07/20 06:57:29;;;;;;;6.30;1.63;;;15.80;99.90;;;;;;5093899;28;20048;-70
2023/07/20 06:59:54;;;;;;;5.47;1.20;;;15.80;99.90;;;;;;5079671;28;20036;-70
2023/07/20 07:02:20;;;;;;;5.38;1.27;;;15.80;99.90;;;;;;5079272;28;20040;-70
2023/07/20 07:04:46;;;;;;;5.20;1.58;;;15.80;99.90;;;;;;5080913;28;20115;-69
2023/07/20 07:07:14;;;;;;;4.70;1.40;;;15.80;99.90;;;;;;5082562;28;20113;-70
2023/07/20 07:09:41;;;;;;;6.95;1.60;;;15.80;99.90;;;;;;5085482;28;20119;-69
2023/07/20 07:12:07;;;;;;;6.47;1.60;;;15.80;99.90;;;;;;5084606;28;20048;-70
2023/07/20 07:14:33;;;;;;;5.78;1.50;;;15.80;99.90;;;;;;5081096;28;20047;-69
2023/07/20 07:16:59;;;;;;;4.65;1.58;;;15.90;99.90;;;;;;5085362;28;20044;-71
2023/07/20 07:19:25;;;;;;;7.28;1.45;;;15.90;99.90;;;;;;5071347;28;20048;-70
2023/07/20 07:21:50;;;;;;;5.30;1.40;;;16.00;99.90;;;;;;5083917;28;20035;-68
2023/07/20 07:24:16;;;;;;;6.75;1.90;;;16.10;99.90;;;;;;5079990;28;21985;-69
2023/07/20 07:26:42;;;;;;;5.53;1.75;;;16.10;99.90;;;;;;5089087;28;20078;-69
2023/07/20 07:29:08;;;;;;;6.47;1.98;;;16.00;99.90;;;;;;5085002;28;20123;-69
2023/07/20 07:31:37;;;;;;;5.75;1.80;;;16.10;99.90;;;;;;5083434;28;20143;-69
2023/07/20 07:34:03;;;;;;;5.88;2.00;;;16.00;99.90;;;;;;5086171;28;20123;-70
2023/07/20 07:36:28;;;;;;;7.80;2.40;;;16.10;99.90;;;;;;5083861;28;21693;-70
2023/07/20 07:38:54;;;;;;;8.63;1.90;;;16.30;99.90;;;;;;5086013;28;20180;-70
2023/07/20 07:41:20;;;;;;;6.88;2.10;;;16.40;99.90;;;;;;5088290;28;20036;-70
2023/07/20 07:43:46;;;;;;;7.10;2.10;;;16.70;99.90;;;;;;5087247;28;20055;-71
2023/07/20 07:46:13;;;;;;;7.88;2.38;;;16.80;99.90;;;;;;5086156;28;20040;-71
2023/07/20 07:48:39;;;;;;;8.75;2.42;;;16.90;99.90;;;;;;5084210;28;20044;-71
2023/07/20 07:51:04;;;;;;;6.75;2.05;;;17.00;99.90;;;;;;5089423;28;20043;-70
2023/07/20 07:53:30;;;;;;;4.68;1.75;;;17.00;99.90;;;;;;5104565;28;20105;-71
2023/07/20 07:55:56;;;;;;;7.13;1.98;;;17.10;99.90;;;;;;5098410;28;20055;-70
2023/07/20 07:58:21;;;;;;;11.40;2.22;;;17.20;99.90;;;;;;5096988;28;20040;-70
2023/07/20 08:00:47;;;;;;;7.13;1.70;;;17.20;99.90;;;;;;5095399;28;20044;-71
2023/07/20 08:03:13;;;;;;;8.18;1.67;;;17.20;99.90;;;;;;5086533;28;20036;-69
2023/07/20 08:05:39;;;;;;;5.47;1.52;;;17.20;99.90;;;;;;5086785;28;20054;-69
2023/07/20 08:08:06;;;;;;;6.95;1.60;;;17.20;99.90;;;;;;5087340;28;20044;-69
2023/07/20 08:10:32;;;;;;;4.65;1.83;;;17.20;99.90;;;;;;5084468;28;20138;-69
2023/07/20 08:12:57;;;;;;;5.43;1.73;;;17.30;99.90;;;;;;5087089;28;20036;-69
2023/07/20 08:15:23;;;;;;;9.25;1.67;;;17.30;99.90;;;;;;5071519;28;20044;-70
2023/07/20 08:17:51;;;;;;;8.88;1.70;;;17.40;99.90;;;;;;5086711;28;20381;-72
2023/07/20 08:20:17;;;;;;;8.60;1.83;;;17.50;99.90;;;;;;5087609;28;20040;-71
2023/07/20 08:22:43;;;;;;;6.22;1.60;;;17.50;99.90;;;;;;5068416;28;20044;-71
2023/07/20 08:25:09;;;;;;;7.07;1.60;;;17.50;99.90;;;;;;5085085;28;20423;-71
2023/07/20 08:27:36;;;;;;;5.25;1.67;;;17.40;99.90;;;;;;5087578;28;20044;-70
2023/07/20 08:30:04;;;;;;;5.53;1.55;;;17.40;99.90;;;;;;5086072;28;20327;-72
2023/07/20 08:32:30;;;;;;;5.72;1.58;;;17.40;99.90;;;;;;5078334;28;20767;-72
2023/07/20 08:34:55;;;;;;;5.10;1.88;;;17.50;99.90;;;;;;5076918;28;20131;-70
2023/07/20 08:37:21;;;;;;;4.82;1.35;;;17.60;99.90;;;;;;5082691;28;20587;-70
2023/07/20 08:39:47;;;;;;;7.70;2.03;;;17.80;99.90;;;;;;5086472;28;20044;-70
2023/07/20 08:42:14;;;;;;;6.15;1.92;;;17.90;99.90;;;;;;5079381;28;20052;-72
2023/07/20 08:44:42;;;;;;;4.63;1.20;;;18.00;99.90;;;;;;5081256;28;20059;-71
2023/07/20 08:47:10;;;;;;;6.43;1.15;;;17.90;99.90;;;;;;5069348;28;20051;-71
2023/07/20 08:49:38;;;;;;;6.57;1.50;;;17.90;99.90;;;;;;5068589;28;20040;-71
2023/07/20 08:52:04;;;;;;;5.43;1.00;;;18.00;99.90;;;;;;5072064;28;20052;-71
2023/07/20 08:54:34;;;;;;;4.05;1.05;;;18.10;99.90;;;;;;5069034;28;20130;-71
2023/07/20 08:57:05;;;;;;;4.32;1.00;;;18.20;99.90;;;;;;5069120;28;20126;-73
2023/07/20 08:59:32;;;;;;;4.43;1.23;;;18.30;99.90;;;;;;5070849;28;20066;-74
2023/07/20 09:01:59;;;;;;;4.15;1.08;;;18.40;99.90;;;;;;5066903;28;20040;-72
2023/07/20 09:04:24;;;;;;;4.40;1.00;;;18.50;99.90;;;;;;5067046;28;20067;-72
2023/07/20 09:06:51;;;;;;;4.57;1.20;;;18.50;99.90;;;;;;5068495;28;20561;-72
2023/07/20 09:09:17;;;;;;;4.90;1.15;;;18.50;99.90;;;;;;5068943;28;20416;-72
2023/07/20 09:11:43;;;;;;;8.40;1.10;;;18.50;99.90;;;;;;5067462;28;20090;-73
2023/07/20 09:14:10;;;;;;;3.33;0.93;;;18.50;99.90;;;;;;5069916;28;20377;-71
2023/07/20 09:16:53;;;;;;;2.78;0.70;;;18.50;99.90;;;;;;5065949;28;20048;-71
2023/07/20 09:19:19;;;;;;;4.13;1.00;;;18.60;99.90;;;;;;5068449;28;20607;-71
2023/07/20 09:21:46;;;;;;;4.03;0.93;;;18.60;99.90;;;;;;5068053;28;20081;-70
2023/07/20 09:24:12;;;;;;;3.80;1.10;;;18.70;99.90;;;;;;5068075;28;20134;-73
2023/07/20 09:26:43;;;;;;;3.78;0.90;;;18.90;99.90;;;;;;5069369;28;20587;-73
2023/07/20 09:29:10;;;;;;;3.42;0.90;;;19.00;99.90;;;;;;5073527;28;20044;-72
2023/07/20 09:31:36;;;;;;;3.53;1.02;;;19.00;99.90;;;;;;5072031;28;20047;-72
2023/07/20 09:34:03;;;;;;;3.83;0.80;;;19.00;99.90;;;;;;5068369;28;20040;-72
2023/07/20 09:36:29;;;;;;;2.85;0.90;;;18.90;99.90;;;;;;5070425;28;20054;-70
2023/07/20 09:38:54;;;;;;;5.07;0.80;;;19.00;99.90;;;;;;5069227;28;20040;-70
2023/07/20 09:41:21;;;;;;;6.25;0.98;;;19.10;99.90;;;;;;5067964;28;20420;-70
2023/07/20 09:43:47;;;;;;;2.15;0.80;;;19.10;99.90;;;;;;5068023;28;20043;-70
2023/07/20 09:46:13;;;;;;;3.22;0.82;;;19.20;99.90;;;;;;5069488;28;20918;-71
2023/07/20 09:48:39;;;;;;;1.80;0.80;;;19.30;99.90;;;;;;5080315;28;20044;-71
2023/07/20 09:51:07;;;;;;;5.13;0.90;;;19.30;99.90;;;;;;5081112;28;20048;-71
2023/07/20 09:53:34;;;;;;;4.95;1.27;;;19.30;99.90;;;;;;5072442;28;20306;-72
2023/07/20 09:56:01;;;;;;;2.20;0.80;;;19.30;99.90;;;;;;5074506;28;20692;-71
2023/07/20 09:58:27;;;;;;;5.95;0.80;;;19.30;99.90;;;;;;5078993;28;20043;-70
2023/07/20 10:00:57;;;;;;;3.60;0.88;;;19.40;99.90;;;;;;5078940;28;20485;-71
2023/07/20 10:03:30;;;;;;;3.35;0.82;;;19.50;99.90;;;;;;5081836;28;20051;-71
2023/07/20 10:06:12;;;;;;;4.35;1.05;;;19.50;99.90;;;;;;5080019;28;20036;-71
2023/07/20 10:08:42;;;;;;;2.80;0.70;;;19.60;99.90;;;;;;5079769;28;20090;-71
2023/07/20 10:11:09;;;;;;;3.63;1.00;;;19.70;99.90;;;;;;5077292;28;20040;-71
2023/07/20 10:13:39;;;;;;;3.55;0.98;;;19.70;99.90;;;;;;5050279;28;20090;-71
2023/07/20 10:16:13;;;;;;;3.83;1.00;;;19.70;99.90;;;;;;5069044;28;20037;-72
2023/07/20 10:18:54;;;;;;;3.92;0.85;;;19.70;99.90;;;;;;5073391;28;20558;-72
2023/07/20 10:21:22;;;;;;;3.30;0.90;;;19.80;99.90;;;;;;5071070;28;20779;-71
2023/07/20 10:23:49;;;;;;;3.22;0.85;;;19.80;99.90;;;;;;5075291;28;20489;-73
2023/07/20 10:26:15;;;;;;;2.50;0.77;;;19.80;99.90;;;;;;5071411;28;20670;-73
2023/07/20 10:28:44;;;;;;;4.85;0.95;;;19.70;99.90;;;;;;5073476;28;20041;-73
2023/07/20 10:31:12;;;;;;;3.38;1.00;;;19.70;99.90;;;;;;5080992;28;20040;-73
2023/07/20 10:33:39;;;;;;;3.55;1.13;;;19.80;99.90;;;;;;5081770;28;20052;-73
2023/07/20 10:36:05;;;;;;;3.58;0.90;;;19.80;99.90;;;;;;5076679;28;20036;-73
2023/07/20 10:38:40;;;;;;;3.85;0.88;;;19.90;99.90;;;;;;5068327;28;20048;-72
2023/07/20 10:41:25;;;;;;;6.93;1.10;;;20.00;99.90;;;;;;5070711;28;20052;-73
2023/07/20 10:43:57;;;;;;;3.63;0.90;;;20.10;99.90;;;;;;5069054;28;20044;-72
2023/07/20 10:46:38;;;;;;;4.55;1.10;;;20.10;99.90;;;;;;5070301;28;20032;-71
2023/07/20 10:49:09;;;;;;;4.20;1.00;;;20.10;99.90;;;;;;5068184;28;20138;-70
2023/07/20 10:51:41;;;;;;;4.50;1.20;;;20.20;99.90;;;;;;5075800;28;20036;-71
2023/07/20 10:54:16;;;;;;;3.63;1.02;;;20.20;99.90;;;;;;5073013;28;20040;-70
2023/07/20 10:56:43;;;;;;;4.43;1.25;;;20.30;99.90;;;;;;5085085;28;20052;-72
2023/07/20 10:59:22;;;;;;;3.63;1.10;;;20.40;99.90;;;;;;5071875;28;20040;-71
2023/07/20 11:01:49;;;;;;;4.90;1.02;;;20.40;99.90;;;;;;5081494;28;20044;-72
2023/07/20 11:04:18;;;;;;;4.90;1.10;;;20.30;99.90;;;;;;5084134;28;20044;-71
2023/07/20 11:06:44;;;;;;;6.10;1.33;;;20.30;99.90;;;;;;5079985;28;20071;-71
2023/07/20 11:09:14;;;;;;;5.13;1.30;;;20.30;99.90;;;;;;5079687;28;20808;-72
2023/07/20 11:11:42;;;;;;;3.97;1.10;;;20.20;99.90;;;;;;5083451;28;20519;-71
2023/07/20 11:14:21;;;;;;;4.20;1.00;;;20.20;99.90;;;;;;5083840;28;20079;-72
2023/07/20 11:16:50;;;;;;;5.18;0.95;;;20.20;99.90;;;;;;5066915;28;20055;-72
2023/07/20 11:19:26;;;;;;;2.88;1.00;;;20.20;99.90;;;;;;5084223;28;20039;-72
2023/07/20 11:21:57;;;;;;;6.85;1.05;;;20.20;99.90;;;;;;5082615;28;20071;-72
2023/07/20 11:24:23;;;;;;;4.10;0.90;;;20.20;99.90;;;;;;5082282;28;20050;-72
2023/07/20 11:26:53;;;;;;;4.80;1.17;;;20.20;99.90;;;;;;5081484;28;20044;-72
2023/07/20 11:29:22;;;;;;;4.00;0.95;;;20.20;99.90;;;;;;5084503;28;20488;-70
2023/07/20 11:31:49;;;;;;;3.35;1.13;;;20.10;99.90;;;;;;5080028;28;20040;-72
2023/07/20 11:34:20;;;;;;;4.63;1.02;;;20.20;99.90;;;;;;5077829;28;20048;-72
2023/07/20 11:36:51;;;;;;;4.75;1.13;;;20.10;99.90;;;;;;5083238;28;20067;-72
2023/07/20 11:39:19;;;;;;;;;;;20.20;99.90;;;;;;5083292;28;20040;-73
2023/07/20 11:41:53;;;;;;;4.10;1.17;;;20.20;99.90;;;;;;5079831;28;20052;-72
2023/07/20 11:44:26;;;;;;;4.38;0.90;;;20.30;99.90;;;;;;5078629;28;20158;-72
2023/07/20 11:47:12;;;;;;;3.45;1.10;;;20.30;99.90;;;;;;5079910;28;20119;-72
2023/07/20 11:49:42;;;;;;;7.72;1.45;;;20.30;99.90;;;;;;5080159;28;20052;-72
2023/07/20 11:52:15;;;;;;;6.75;1.05;;;20.20;99.90;;;;;;5079428;28;20120;-72
2023/07/20 11:54:42;;;;;;;5.25;1.02;;;20.20;99.90;;;;;;5075307;28;20489;-72
2023/07/20 11:57:19;;;;;;;3.30;0.90;;;20.20;99.90;;;;;;5083946;28;20048;-72
2023/07/20 11:59:57;;;;;;;3.00;0.90;;;20.20;99.90;;;;;;5063466;28;20063;-71
2023/07/20 12:02:25;;;;;;;2.90;1.02;;;20.20;99.90;;;;;;5079299;28;20040;-71
2023/07/20 12:04:52;;;;;;;5.03;1.23;;;20.20;99.90;;;;;;5085607;28;20068;-72
2023/07/20 12:07:19;;;;;;;3.83;1.17;;;20.20;99.90;;;;;;5085308;28;20518;-72
2023/07/20 12:10:02;;;;;;;4.40;0.95;;;20.20;99.90;;;;;;5085560;28;20048;-72
2023/07/20 12:12:28;;;;;;;3.28;1.00;;;20.20;99.90;;;;;;5075809;28;20694;-71
2023/07/20 12:14:54;;;;;;;6.25;1.00;;;20.10;99.90;;;;;;5075134;28;20044;-72
2023/07/20 12:17:20;;;;;;;8.55;1.67;;;20.00;99.90;;;;;;5085697;28;20690;-74
2023/07/20 12:19:46;;;;;;;8.82;2.60;;;19.90;99.90;;;;;;5085809;28;20110;-72
2023/07/20 12:22:12;;;;;;;9.07;1.90;;;19.90;99.90;;;;;;5083165;28;20127;-72
2023/07/20 12:24:37;;;;;;;7.68;1.65;;;19.70;99.90;;;;;;5080716;28;20230;-72
2023/07/20 12:27:04;;;;;;;4.63;1.30;;;19.60;99.90;;;;;;5075588;28;20826;-71
2023/07/20 12:29:31;;;;;;;4.93;1.38;;;19.60;99.90;;;;;;5080021;28;20036;-71
2023/07/20 12:31:57;;;;;;;5.15;1.10;;;19.50;99.90;;;;;;5078131;28;20409;-72
2023/07/20 12:34:22;;;;;;;3.67;1.38;;;19.50;99.90;;;;;;5081950;28;20040;-72
2023/07/20 12:36:48;;;;;;;4.35;1.30;;;19.40;99.90;;;;;;5080319;28;20431;-71
2023/07/20 12:39:14;;;;;;;4.43;1.17;;;19.50;99.90;;;;;;5080487;28;20047;-72
2023/07/20 12:41:40;;;;;;;5.93;1.27;;;19.40;99.90;;;;;;5083607;28;21138;-72
2023/07/20 12:44:06;;;;;;;4.05;1.50;;;19.50;99.90;;;;;;5083741;28;20152;-72
2023/07/20 12:46:35;;;;;;;5.43;1.25;;;19.60;99.90;;;;;;5083059;28;20036;-72
2023/07/20 12:49:00;;;;;;;3.85;1.17;;;19.70;99.90;;;;;;5076241;28;20048;-71